Time;durP1;ratioP1;P1;durP2;ratioP2;P2;SDS_P1;SDS_P2;PMS_P1;PMS_P2;Temp;Humidity;BMP_temperature;BMP_pressure;BME280_temperature;BME280_humidity;BME280_pressure;Samples;Min_cycle;Max_cycle;Signal;HPM_P1;HPM_P2
2021/01/25 00:01:48;;;;;;;6.03;3.33;;;;;;;-6.30;83.15;93995.88;4985636;28;20554;-71
2021/01/25 00:04:15;;;;;;;4.43;4.13;;;;;;;-6.29;83.02;93987.25;5005525;28;20494;-71
2021/01/25 00:06:44;;;;;;;5.03;3.70;;;;;;;-6.23;83.30;93985.91;5003605;28;20471;-71
2021/01/25 00:09:11;;;;;;;6.50;4.23;;;;;;;-6.20;82.54;93983.94;5004237;28;20503;-71
2021/01/25 00:11:38;;;;;;;6.03;4.17;;;;;;;-6.23;82.26;93976.47;4993327;28;20463;-71
2021/01/25 00:14:05;;;;;;;5.63;5.10;;;;;;;-6.17;82.66;93975.16;5002087;28;20522;-71
2021/01/25 00:16:32;;;;;;;5.60;4.77;;;;;;;-6.07;82.65;93969.16;4985070;28;20559;-71
2021/01/25 00:18:59;;;;;;;7.50;4.73;;;;;;;-6.04;82.33;93961.19;4981104;28;20469;-70
2021/01/25 00:21:25;;;;;;;5.53;3.90;;;;;;;-5.91;82.20;93965.31;5002129;28;20886;-71
2021/01/25 00:23:53;;;;;;;8.53;5.17;;;;;;;-6.04;82.04;93961.19;4994065;28;20473;-71
2021/01/25 00:26:20;;;;;;;6.63;6.03;;;;;;;-6.07;81.90;93965.75;4994480;28;20471;-71
2021/01/25 00:28:47;;;;;;;4.53;4.17;;;;;;;-6.11;82.08;93975.47;5005874;28;20472;-72
2021/01/25 00:31:14;;;;;;;5.13;4.53;;;;;;;-6.06;81.69;93967.38;4995977;28;20456;-71
2021/01/25 00:33:41;;;;;;;4.57;4.27;;;;;;;-6.21;81.44;93966.91;4991179;28;20476;-71
2021/01/25 00:36:08;;;;;;;4.90;4.13;;;;;;;-6.30;81.78;93965.09;4973358;28;20491;-71
2021/01/25 00:38:35;;;;;;;5.07;4.57;;;;;;;-6.33;82.61;93971.25;5001085;28;20503;-72
2021/01/25 00:41:03;;;;;;;4.10;3.70;;;;;;;-6.41;82.41;93963.38;4989585;28;20492;-71
2021/01/25 00:43:30;;;;;;;4.60;4.20;;;;;;;-6.51;82.30;93956.53;4987543;28;20491;-72
2021/01/25 00:45:57;;;;;;;6.40;4.20;;;;;;;-6.59;83.20;93955.38;5004452;28;20920;-71
2021/01/25 00:48:23;;;;;;;5.67;4.93;;;;;;;-6.57;83.50;93954.47;4999709;28;20459;-71
2021/01/25 00:50:50;;;;;;;4.33;3.90;;;;;;;-6.60;83.24;93956.31;5000376;28;21046;-72
2021/01/25 00:53:18;;;;;;;5.97;5.33;;;;;;;-6.61;83.43;93953.88;4985739;28;20464;-71
2021/01/25 00:55:45;;;;;;;5.03;4.47;;;;;;;-6.61;83.92;93956.47;4978700;28;20487;-71
2021/01/25 00:58:13;;;;;;;6.20;4.23;;;;;;;-6.60;84.07;93947.81;5004860;28;20475;-71
2021/01/25 01:00:39;;;;;;;5.73;4.57;;;;;;;-6.61;83.92;93947.00;4997682;28;20813;-71
2021/01/25 01:03:06;;;;;;;5.97;4.57;;;;;;;-6.50;84.79;93953.03;4994556;28;20499;-71
2021/01/25 01:05:33;;;;;;;5.43;4.83;;;;;;;-6.49;83.69;93949.50;4986687;28;20534;-71
2021/01/25 01:08:00;;;;;;;8.67;3.97;;;;;;;-6.47;84.29;93943.34;4986138;28;20510;-71
2021/01/25 01:10:27;;;;;;;4.13;3.67;;;;;;;-6.44;83.95;93944.84;4998073;28;20575;-71
2021/01/25 01:12:54;;;;;;;4.37;4.00;;;;;;;-6.39;84.23;93940.16;5001828;28;20476;-71
2021/01/25 01:15:22;;;;;;;3.90;3.53;;;;;;;-6.40;84.01;93943.66;5004508;28;20609;-71
2021/01/25 01:17:49;;;;;;;5.87;5.30;;;;;;;-6.39;83.63;93942.72;5001248;28;20523;-71
2021/01/25 01:20:16;;;;;;;4.30;3.77;;;;;;;-6.47;83.58;93947.66;4996559;28;20558;-71
2021/01/25 01:22:45;;;;;;;5.03;4.00;;;;;;;-6.60;83.77;93935.81;4991362;28;20468;-71
2021/01/25 01:25:12;;;;;;;6.07;4.60;;;;;;;-6.56;84.03;93941.53;5002401;28;20475;-71
2021/01/25 01:27:39;;;;;;;7.33;4.77;;;;;;;-6.49;83.93;93932.41;4986372;28;20579;-71
2021/01/25 01:30:07;;;;;;;5.17;4.30;;;;;;;-6.50;83.80;93919.66;4999211;28;20499;-71
2021/01/25 01:32:36;;;;;;;6.83;3.37;;;;;;;-6.43;83.88;93906.22;4997225;28;20475;-71
2021/01/25 01:35:04;;;;;;;5.23;4.73;;;;;;;-6.37;84.14;93897.22;4987485;28;20490;-71
2021/01/25 01:37:31;;;;;;;5.20;4.70;;;;;;;-6.30;84.41;93880.38;4988383;28;20517;-71
2021/01/25 01:39:58;;;;;;;6.00;5.40;;;;;;;-6.09;82.54;93855.50;4996748;28;21000;-71
2021/01/25 01:42:25;;;;;;;9.57;6.37;;;;;;;-6.12;81.41;93855.75;4996710;28;20558;-71
2021/01/25 01:44:52;;;;;;;16.20;9.53;;;;;;;-6.19;81.57;93848.69;4998087;28;21004;-71
2021/01/25 01:47:20;;;;;;;7.80;5.70;;;;;;;-6.13;81.27;93854.09;5005789;28;20471;-71
2021/01/25 01:49:51;;;;;;;5.13;4.03;;;;;;;-6.21;81.58;93859.09;4996804;28;20472;-71
2021/01/25 01:52:18;;;;;;;12.53;6.30;;;;;;;-6.19;82.00;93869.22;4984458;28;20517;-71
2021/01/25 01:54:45;;;;;;;6.00;3.63;;;;;;;-6.20;79.79;93865.03;4999601;28;20987;-71
2021/01/25 01:57:12;;;;;;;3.40;3.10;;;;;;;-6.42;79.47;93868.53;5000827;28;20925;-71
2021/01/25 01:59:39;;;;;;;9.50;6.23;;;;;;;-6.58;80.09;93879.28;4985559;28;20795;-71
2021/01/25 02:02:06;;;;;;;3.43;3.23;;;;;;;-6.63;80.47;93876.25;4993692;28;20528;-71
2021/01/25 02:04:34;;;;;;;4.03;3.63;;;;;;;-6.70;81.41;93875.94;4999062;28;20456;-71
2021/01/25 02:07:05;;;;;;;3.90;3.60;;;;;;;-6.74;81.62;93884.81;4980502;28;20562;-71
2021/01/25 02:09:35;;;;;;;4.80;3.77;;;;;;;-6.76;81.79;93884.13;5001284;28;20492;-71
2021/01/25 02:12:05;;;;;;;5.83;3.93;;;;;;;-6.90;82.65;93884.41;5003059;28;20547;-71
2021/01/25 02:14:32;;;;;;;4.27;3.03;;;;;;;-6.98;83.33;93886.78;4994411;28;20498;-71
2021/01/25 02:17:00;;;;;;;6.07;5.57;;;;;;;-6.98;83.86;93881.66;5002420;28;20535;-71
2021/01/25 02:19:34;;;;;;;3.87;3.60;;;;;;;-6.87;84.60;93884.16;4976215;28;20556;-71
2021/01/25 02:22:12;;;;;;;4.37;3.90;;;;;;;-6.61;83.94;93879.50;4981607;28;20803;-71
2021/01/25 02:24:45;;;;;;;5.57;4.97;;;;;;;-6.61;83.66;93870.06;5004196;28;20558;-71
2021/01/25 02:27:30;;;;;;;3.30;3.10;;;;;;;-6.64;82.88;93878.00;5000950;28;20949;-71
2021/01/25 02:29:59;;;;;;;3.00;2.80;;;;;;;-6.66;83.06;93876.50;5002203;28;20600;-71
2021/01/25 02:32:27;;;;;;;5.53;3.33;;;;;;;-6.66;83.07;93891.91;4998171;28;20503;-71
2021/01/25 02:34:55;;;;;;;4.30;3.87;;;;;;;-6.81;82.50;93886.25;5004035;28;20503;-71
2021/01/25 02:37:23;;;;;;;4.20;3.87;;;;;;;-6.91;83.24;93885.34;5000085;28;20471;-71
2021/01/25 02:39:52;;;;;;;4.03;3.80;;;;;;;-6.90;83.30;93885.22;4994525;28;20563;-71
2021/01/25 02:42:19;;;;;;;3.53;3.23;;;;;;;-6.90;84.64;93884.41;4991404;28;20687;-71
2021/01/25 02:44:48;;;;;;;4.33;3.50;;;;;;;-6.87;85.08;93873.91;4994243;28;20476;-71
2021/01/25 02:47:17;;;;;;;4.90;3.57;;;;;;;-6.88;84.41;93867.16;4986148;28;20527;-71
2021/01/25 02:49:44;;;;;;;4.37;3.63;;;;;;;-6.85;83.89;93866.94;5001618;28;20471;-71
2021/01/25 02:52:12;;;;;;;4.67;3.27;;;;;;;-6.80;84.46;93862.22;5003206;28;20883;-71
2021/01/25 02:54:39;;;;;;;3.43;2.80;;;;;;;-6.73;84.43;93860.78;4999046;28;20466;-71
2021/01/25 02:57:08;;;;;;;4.50;4.20;;;;;;;-6.67;84.33;93855.19;4979876;28;20550;-71
2021/01/25 02:59:37;;;;;;;4.20;3.87;;;;;;;-6.55;83.97;93857.69;5002394;28;21055;-71
2021/01/25 03:02:07;;;;;;;2.90;2.70;;;;;;;-6.55;83.59;93858.50;4995838;28;20498;-71
2021/01/25 03:04:35;;;;;;;3.73;3.40;;;;;;;-6.49;83.24;93858.00;4986579;28;20467;-71
2021/01/25 03:07:03;;;;;;;3.03;2.83;;;;;;;-6.49;83.06;93852.03;5003211;28;21474;-71
2021/01/25 03:09:31;;;;;;;5.67;4.93;;;;;;;-6.47;83.29;93850.97;4999190;28;20477;-71
2021/01/25 03:11:59;;;;;;;9.20;3.10;;;;;;;-6.44;83.35;93855.84;5002015;28;20968;-71
2021/01/25 03:14:25;;;;;;;4.33;2.90;;;;;;;-6.39;82.80;93858.88;4997871;28;20479;-71
2021/01/25 03:16:53;;;;;;;3.30;3.10;;;;;;;-6.30;81.99;93867.56;4991086;28;20657;-71
2021/01/25 03:19:21;;;;;;;4.03;3.37;;;;;;;-6.30;81.87;93865.00;5008228;28;20475;-71
2021/01/25 03:21:48;;;;;;;3.43;3.13;;;;;;;-6.24;82.07;93861.09;5005720;28;20510;-71
2021/01/25 03:24:16;;;;;;;4.73;3.63;;;;;;;-6.16;81.03;93859.50;4999035;28;20545;-71
2021/01/25 03:26:43;;;;;;;2.90;2.70;;;;;;;-6.17;81.13;93857.88;4979065;28;20493;-70
2021/01/25 03:29:11;;;;;;;3.43;3.07;;;;;;;-6.14;81.04;93857.63;5008303;28;20558;-73
2021/01/25 03:31:38;;;;;;;3.27;2.80;;;;;;;-6.15;81.81;93852.63;4985240;28;20499;-73
2021/01/25 03:34:06;;;;;;;3.43;3.20;;;;;;;-6.21;82.33;93859.09;5007779;28;20812;-71
2021/01/25 03:36:34;;;;;;;3.47;3.17;;;;;;;-6.23;81.92;93860.94;5000532;28;20495;-71
2021/01/25 03:39:01;;;;;;;3.97;3.17;;;;;;;-6.20;82.29;93858.16;4999281;28;20742;-71
2021/01/25 03:41:28;;;;;;;3.33;3.03;;;;;;;-6.27;82.13;93863.91;5001200;28;20482;-71
2021/01/25 03:43:55;;;;;;;2.80;2.27;;;;;;;-6.29;82.36;93851.22;4988734;28;20496;-71
2021/01/25 03:46:21;;;;;;;2.57;2.07;;;;;;;-6.28;81.48;93854.59;5002969;28;20509;-71
2021/01/25 03:48:48;;;;;;;2.10;2.00;;;;;;;-6.22;81.49;93862.56;4984814;28;20832;-71
2021/01/25 03:51:15;;;;;;;3.13;2.23;;;;;;;-6.18;81.53;93858.03;5001430;28;20835;-71
2021/01/25 03:53:43;;;;;;;4.00;1.90;;;;;;;-6.15;80.66;93856.00;5001813;28;20542;-71
2021/01/25 03:56:10;;;;;;;2.83;2.30;;;;;;;-6.16;80.51;93841.53;4981379;28;20550;-71
2021/01/25 03:58:36;;;;;;;5.93;2.60;;;;;;;-6.05;81.40;93851.72;4993955;28;20533;-71
2021/01/25 04:01:03;;;;;;;2.97;2.73;;;;;;;-5.95;80.45;93858.66;4994375;28;20901;-71
2021/01/25 04:03:30;;;;;;;3.23;3.03;;;;;;;-5.96;80.55;93855.28;4984378;28;20463;-71
2021/01/25 04:05:57;;;;;;;4.17;2.43;;;;;;;-5.98;80.90;93846.06;4999486;28;20481;-71
2021/01/25 04:08:24;;;;;;;3.80;2.47;;;;;;;-5.95;80.51;93858.66;4989948;28;20505;-71
2021/01/25 04:10:52;;;;;;;3.20;3.00;;;;;;;-5.95;80.92;93856.09;4996129;28;21015;-71
2021/01/25 04:13:19;;;;;;;2.33;2.23;;;;;;;-5.90;80.63;93853.94;4998829;28;20959;-71
2021/01/25 04:15:45;;;;;;;3.67;3.47;;;;;;;-5.86;81.00;93850.94;5004796;28;20546;-71
2021/01/25 04:18:12;;;;;;;2.87;2.13;;;;;;;-5.81;81.38;93855.72;4986685;28;20522;-71
2021/01/25 04:20:39;;;;;;;4.40;1.80;;;;;;;-5.61;81.16;93854.81;4995248;28;20555;-71
2021/01/25 04:23:06;;;;;;;3.40;1.83;;;;;;;-5.40;78.79;93856.50;4998810;28;20487;-71
2021/01/25 04:25:33;;;;;;;3.13;1.67;;;;;;;-5.36;77.71;93863.81;4983411;28;20492;-71
2021/01/25 04:28:00;;;;;;;2.53;2.03;;;;;;;-5.32;77.89;93864.34;5007435;28;21073;-71
2021/01/25 04:30:28;;;;;;;1.47;1.37;;;;;;;-5.26;77.03;93858.69;5005270;28;20467;-71
2021/01/25 04:32:55;;;;;;;2.80;2.60;;;;;;;-5.28;75.98;93856.25;4987258;28;20494;-71
2021/01/25 04:35:22;;;;;;;0.97;0.97;;;;;;;-5.22;75.58;93860.03;4984529;28;20478;-71
2021/01/25 04:37:49;;;;;;;2.23;1.50;;;;;;;-5.20;74.45;93855.59;4993307;28;21065;-71
2021/01/25 04:40:16;;;;;;;2.80;1.27;;;;;;;-5.14;74.20;93865.34;4992802;28;20689;-71
2021/01/25 04:42:43;;;;;;;1.20;1.10;;;;;;;-5.06;73.52;93860.34;4993061;28;20873;-71
2021/01/25 04:45:12;;;;;;;0.97;0.97;;;;;;;-4.96;72.49;93866.31;4981729;28;20472;-71
2021/01/25 04:47:44;;;;;;;4.07;1.43;;;;;;;-4.95;73.88;93864.53;5002669;28;20475;-71
2021/01/25 04:50:11;;;;;;;1.33;1.20;;;;;;;-4.89;75.13;93862.25;4988533;28;20745;-71
2021/01/25 04:52:42;;;;;;;1.10;0.93;;;;;;;-4.86;75.60;93861.97;5001164;28;20820;-71
2021/01/25 04:55:10;;;;;;;1.77;1.57;;;;;;;-4.69;75.18;93862.25;5002913;28;20561;-73
2021/01/25 04:57:37;;;;;;;1.20;1.10;;;;;;;-4.74;76.79;93859.28;5001835;28;21000;-73
2021/01/25 05:00:07;;;;;;;1.60;1.50;;;;;;;-4.70;77.43;93855.47;5001628;28;20471;-73
2021/01/25 05:02:37;;;;;;;1.20;1.10;;;;;;;-4.70;78.36;93858.06;4996912;28;20567;-74
2021/01/25 05:05:05;;;;;;;4.53;1.20;;;;;;;-4.76;79.56;93866.31;4979546;28;20467;-74
2021/01/25 05:07:32;;;;;;;1.53;1.30;;;;;;;-4.76;81.17;93863.72;4998502;28;20451;-74
2021/01/25 05:09:59;;;;;;;0.73;0.63;;;;;;;-4.69;81.55;93857.09;4993658;28;20516;-73
2021/01/25 05:12:27;;;;;;;1.10;0.87;;;;;;;-4.65;81.44;93863.63;5002424;28;20566;-73
2021/01/25 05:14:54;;;;;;;2.70;1.10;;;;;;;-4.63;82.10;93848.84;4982420;28;21036;-73
2021/01/25 05:17:25;;;;;;;2.43;1.43;;;;;;;-4.59;82.83;93853.56;4982654;28;21083;-74
2021/01/25 05:19:57;;;;;;;3.27;1.13;;;;;;;-4.50;83.89;93851.94;5005473;28;20475;-74
2021/01/25 05:22:25;;;;;;;1.10;1.00;;;;;;;-4.45;83.74;93849.78;4981923;28;20468;-74
2021/01/25 05:24:53;;;;;;;0.60;0.47;;;;;;;-4.40;84.38;93857.88;4989899;28;20940;-73
2021/01/25 05:27:24;;;;;;;1.30;0.90;;;;;;;-4.22;85.63;93849.44;4988298;28;20895;-74
2021/01/25 05:29:52;;;;;;;0.50;0.50;;;;;;;-4.19;85.46;93844.03;5005744;28;20557;-74
2021/01/25 05:32:19;;;;;;;1.87;1.33;;;;;;;-4.23;85.42;93842.66;5003421;28;21239;-73
2021/01/25 05:34:47;;;;;;;0.90;0.60;;;;;;;-4.24;85.94;93849.59;5005641;28;21113;-74
2021/01/25 05:37:15;;;;;;;3.00;1.43;;;;;;;-4.22;87.11;93849.44;5005003;28;20602;-74
2021/01/25 05:39:46;;;;;;;2.33;0.80;;;;;;;-4.20;87.05;93842.41;5005745;28;20554;-74
2021/01/25 05:42:13;;;;;;;1.20;1.03;;;;;;;-4.13;87.31;93838.31;4987301;28;20541;-74
2021/01/25 05:44:41;;;;;;;1.30;1.20;;;;;;;-4.08;87.97;93843.88;4996187;28;20866;-74
2021/01/25 05:47:09;;;;;;;3.47;1.30;;;;;;;-4.08;88.07;93836.94;5005477;28;20491;-74
2021/01/25 05:49:36;;;;;;;2.07;1.87;;;;;;;-4.09;87.90;93839.66;5005611;28;20472;-74
2021/01/25 05:52:04;;;;;;;5.30;3.80;;;;;;;-4.06;88.40;93844.53;5001309;28;20935;-74
2021/01/25 05:54:33;;;;;;;3.97;2.30;;;;;;;-3.94;87.81;93848.53;4986939;28;20521;-74
2021/01/25 05:57:00;;;;;;;2.63;1.67;;;;;;;-3.89;87.99;93846.38;4997485;28;20502;-74
2021/01/25 05:59:27;;;;;;;2.40;2.17;;;;;;;-3.93;87.69;93857.09;5004284;28;20521;-74
2021/01/25 06:02:01;;;;;;;1.30;1.30;;;;;;;-4.00;86.92;93849.13;5005353;28;20473;-74
2021/01/25 06:04:29;;;;;;;1.23;0.93;;;;;;;-3.87;87.25;93848.81;5001637;28;20960;-74
2021/01/25 06:07:04;;;;;;;1.30;1.20;;;;;;;-3.94;87.15;93852.88;4997875;28;20495;-74
2021/01/25 06:09:42;;;;;;;2.60;1.53;;;;;;;-3.86;86.89;93856.38;4997051;28;20586;-74
2021/01/25 06:12:09;;;;;;;3.77;1.10;;;;;;;-3.93;85.73;93855.34;4980868;28;20882;-74
2021/01/25 06:14:43;;;;;;;3.07;1.90;;;;;;;-3.99;85.83;93855.91;5000802;28;20510;-74
2021/01/25 06:17:14;;;;;;;2.60;2.40;;;;;;;-4.03;85.96;93854.53;4996069;28;20455;-74
2021/01/25 06:19:42;;;;;;;7.47;5.10;;;;;;;-3.95;86.58;93852.06;4990636;28;20495;-74
2021/01/25 06:22:10;;;;;;;3.20;2.80;;;;;;;-3.90;86.09;93857.63;4998176;28;20570;-74
2021/01/25 06:24:39;;;;;;;3.40;1.27;;;;;;;-4.00;85.44;93859.44;5004629;28;20499;-74
2021/01/25 06:27:06;;;;;;;1.03;0.90;;;;;;;-4.04;86.52;93858.88;5002634;28;20493;-74
2021/01/25 06:29:33;;;;;;;2.00;1.63;;;;;;;-4.00;86.24;93851.69;4994402;28;20522;-74
2021/01/25 06:32:00;;;;;;;0.40;0.40;;;;;;;-4.06;86.22;93847.09;4999840;28;20991;-73
2021/01/25 06:34:28;;;;;;;2.17;1.97;;;;;;;-4.06;86.17;93852.25;5002793;28;20468;-71
2021/01/25 06:36:55;;;;;;;3.33;2.03;;;;;;;-4.11;86.91;93849.31;4983402;28;20491;-70
2021/01/25 06:39:27;;;;;;;0.80;0.50;;;;;;;-4.19;86.97;93856.91;5005054;28;20510;-71
2021/01/25 06:42:02;;;;;;;0.77;0.77;;;;;;;-4.17;86.46;93858.38;4999707;28;20551;-70
2021/01/25 06:44:31;;;;;;;1.10;0.37;;;;;;;-4.28;86.69;93860.31;5004459;28;20538;-70
2021/01/25 06:46:59;;;;;;;0.73;0.73;;;;;;;-4.20;86.93;93868.16;4997475;28;20465;-68
2021/01/25 06:49:26;;;;;;;0.60;0.60;;;;;;;-4.23;86.53;93858.13;4989684;28;20461;-68
2021/01/25 06:51:55;;;;;;;2.37;1.47;;;;;;;-4.25;87.58;93860.03;4980392;28;20475;-68
2021/01/25 06:54:24;;;;;;;1.67;1.57;;;;;;;-4.31;87.50;93867.34;5007036;28;20470;-68
2021/01/25 06:56:52;;;;;;;0.73;0.60;;;;;;;-4.30;87.79;93874.16;5004717;28;20875;-68
2021/01/25 06:59:22;;;;;;;0.80;0.80;;;;;;;-4.24;88.02;93870.19;5002410;28;20586;-68
2021/01/25 07:01:50;;;;;;;3.40;1.00;;;;;;;-4.18;88.08;93871.41;4984137;28;20527;-68
2021/01/25 07:04:19;;;;;;;2.37;1.73;;;;;;;-4.06;87.23;93872.88;4995666;28;20985;-68
2021/01/25 07:06:51;;;;;;;3.20;0.50;;;;;;;-4.03;87.90;93872.56;4996703;28;20474;-68
2021/01/25 07:09:26;;;;;;;5.13;0.90;;;;;;;-4.00;87.37;93869.75;4987590;28;20499;-68
2021/01/25 07:11:54;;;;;;;3.43;0.70;;;;;;;-4.01;87.86;93875.84;4995339;28;21064;-68
2021/01/25 07:14:24;;;;;;;0.40;0.40;;;;;;;-3.97;88.28;93874.59;5002076;28;20539;-68
2021/01/25 07:16:53;;;;;;;1.60;0.40;;;;;;;-3.91;88.38;93884.34;4988733;28;20570;-69
2021/01/25 07:19:20;;;;;;;0.43;0.20;;;;;;;-3.85;88.57;93883.78;4991234;28;20486;-68
2021/01/25 07:21:48;;;;;;;1.07;0.97;;;;;;;-3.72;87.93;93884.28;4985154;28;20554;-68
2021/01/25 07:24:19;;;;;;;1.67;1.57;;;;;;;-3.67;88.08;93885.63;4977018;28;20563;-69
2021/01/25 07:26:49;;;;;;;1.60;1.50;;;;;;;-3.58;87.28;93884.75;5003842;28;20823;-68
2021/01/25 07:29:16;;;;;;;2.30;1.80;;;;;;;-3.51;86.94;93891.78;4985014;28;20974;-68
2021/01/25 07:31:44;;;;;;;1.50;1.40;;;;;;;-3.43;86.31;93898.81;5001008;28;20731;-68
2021/01/25 07:34:12;;;;;;;1.57;1.47;;;;;;;-3.40;85.95;93893.38;4992240;28;20456;-68
2021/01/25 07:36:38;;;;;;;1.20;1.00;;;;;;;-3.35;85.57;93898.91;5003606;28;20802;-68
2021/01/25 07:39:07;;;;;;;0.87;0.87;;;;;;;-3.20;85.39;93894.91;4999984;28;20471;-68
2021/01/25 07:41:36;;;;;;;0.97;0.90;;;;;;;-3.23;84.88;93899.53;4993307;28;20904;-68
2021/01/25 07:44:05;;;;;;;1.83;1.40;;;;;;;-3.19;84.65;93900.88;4997396;28;20539;-68
2021/01/25 07:46:32;;;;;;;1.67;1.57;;;;;;;-3.19;84.61;93904.28;4990190;28;20467;-68
2021/01/25 07:49:00;;;;;;;1.33;1.23;;;;;;;-3.20;84.64;93910.41;5007496;28;20498;-69
2021/01/25 07:51:29;;;;;;;3.43;2.57;;;;;;;-3.20;84.52;93910.41;4998460;28;20545;-69
2021/01/25 07:53:57;;;;;;;1.97;1.50;;;;;;;-3.11;84.67;93913.03;5007278;28;20494;-69
2021/01/25 07:56:25;;;;;;;4.20;2.83;;;;;;;-3.09;85.25;93911.16;5003317;28;20478;-68
2021/01/25 07:59:04;;;;;;;6.53;4.97;;;;;;;-3.04;84.35;93914.91;5007104;28;20550;-68
2021/01/25 08:01:42;;;;;;;6.07;5.43;;;;;;;-3.05;84.28;93912.47;5006971;28;20494;-69
2021/01/25 08:04:13;;;;;;;4.90;3.90;;;;;;;-3.03;84.52;93916.53;5007564;28;20555;-69
2021/01/25 08:06:40;;;;;;;3.83;3.50;;;;;;;-2.98;85.13;93923.84;5000875;28;20581;-68
2021/01/25 08:09:11;;;;;;;4.20;1.63;;;;;;;-2.97;84.95;93915.97;4994518;28;21074;-68
2021/01/25 08:11:40;;;;;;;7.47;6.13;;;;;;;-2.92;84.89;93918.13;5001896;28;20558;-69
2021/01/25 08:14:17;;;;;;;8.00;7.03;;;;;;;-2.89;84.37;93925.56;4996252;28;21104;-68
2021/01/25 08:16:55;;;;;;;5.47;4.97;;;;;;;-2.85;84.47;93913.97;5004013;28;21050;-69
2021/01/25 08:19:26;;;;;;;10.83;9.87;;;;;;;-2.80;85.04;93927.28;5004424;28;20509;-69
2021/01/25 08:21:59;;;;;;;5.10;4.67;;;;;;;-2.73;85.52;93928.31;4996084;28;20464;-69
2021/01/25 08:24:25;;;;;;;8.43;5.30;;;;;;;-2.62;84.92;93928.09;4989528;28;20515;-68
2021/01/25 08:26:55;;;;;;;7.63;6.30;;;;;;;-2.51;85.22;93931.41;5007826;28;21000;-69
2021/01/25 08:29:26;;;;;;;7.40;6.67;;;;;;;-2.38;84.75;93926.69;5004372;28;20553;-69
2021/01/25 08:31:53;;;;;;;5.73;5.23;;;;;;;-2.27;84.96;93936.81;4994825;28;20468;-69
2021/01/25 08:34:27;;;;;;;4.33;3.20;;;;;;;-2.14;84.26;93929.47;5003869;28;20723;-69
2021/01/25 08:37:05;;;;;;;4.93;4.43;;;;;;;-2.09;83.73;93937.63;4997414;28;20460;-69
2021/01/25 08:39:38;;;;;;;3.37;3.07;;;;;;;-2.09;83.20;93935.03;4994283;28;20471;-69
2021/01/25 08:42:13;;;;;;;5.63;2.80;;;;;;;-2.06;83.03;93939.06;4999998;28;20531;-69
2021/01/25 08:44:45;;;;;;;4.37;4.03;;;;;;;-2.04;83.17;93937.97;4979084;28;20683;-68
2021/01/25 08:47:14;;;;;;;3.63;2.60;;;;;;;-1.99;83.32;93941.88;5004681;28;20816;-69
2021/01/25 08:49:42;;;;;;;4.87;4.47;;;;;;;-1.98;82.77;93939.16;5006289;28;20550;-69
2021/01/25 08:52:22;;;;;;;5.43;4.27;;;;;;;-1.97;82.94;93939.94;5005708;28;21087;-69
2021/01/25 08:54:49;;;;;;;5.40;4.40;;;;;;;-2.01;82.22;93945.44;4991873;28;20814;-69
2021/01/25 08:57:17;;;;;;;3.33;3.03;;;;;;;-2.02;82.14;93948.94;4988358;28;20463;-69
2021/01/25 08:59:45;;;;;;;2.27;1.77;;;;;;;-2.04;82.13;93950.88;5005306;28;20980;-69
2021/01/25 09:02:15;;;;;;;1.47;1.37;;;;;;;-2.07;82.20;93958.94;4998155;28;21024;-69
2021/01/25 09:04:42;;;;;;;1.27;1.17;;;;;;;-1.98;82.37;93959.00;5004712;28;20482;-68
2021/01/25 09:07:13;;;;;;;1.20;0.73;;;;;;;-1.89;82.19;93969.25;5000701;28;20475;-69
2021/01/25 09:09:40;;;;;;;1.23;0.70;;;;;;;-1.86;81.97;93973.31;4994730;28;20550;-69
2021/01/25 09:12:08;;;;;;;2.33;1.07;;;;;;;-1.76;82.22;93967.09;4997825;28;20594;-69
2021/01/25 09:14:35;;;;;;;0.43;0.40;;;;;;;-1.70;81.97;93972.63;4989114;28;20482;-69
2021/01/25 09:17:03;;;;;;;1.43;0.90;;;;;;;-1.63;82.00;93973.66;4999409;28;20844;-69
2021/01/25 09:19:30;;;;;;;0.80;0.70;;;;;;;-1.56;81.91;93975.47;4997369;28;20482;-69
2021/01/25 09:21:57;;;;;;;0.80;0.60;;;;;;;-1.39;81.76;93975.56;4994331;28;20467;-69
2021/01/25 09:24:23;;;;;;;1.53;1.10;;;;;;;-1.29;81.27;93984.84;4997464;28;20463;-69
2021/01/25 09:26:50;;;;;;;0.70;0.70;;;;;;;-1.13;81.28;93981.53;5005619;28;20515;-69
2021/01/25 09:29:18;;;;;;;2.30;2.20;;;;;;;-1.07;80.67;93991.28;5000704;28;20892;-69
2021/01/25 09:31:44;;;;;;;2.40;1.33;;;;;;;-1.01;81.33;93995.81;4990773;28;20471;-69
2021/01/25 09:34:13;;;;;;;1.00;1.00;;;;;;;-1.00;82.19;93996.66;4993253;28;20812;-69
2021/01/25 09:36:39;;;;;;;0.87;0.87;;;;;;;-0.99;81.83;94003.47;4994374;28;20671;-69
2021/01/25 09:39:07;;;;;;;1.10;0.97;;;;;;;-0.98;83.19;94005.88;4993385;28;20483;-69
2021/01/25 09:41:35;;;;;;;0.80;0.80;;;;;;;-0.52;85.40;94005.59;4997566;28;20520;-69
2021/01/25 09:44:03;;;;;;;1.07;0.87;;;;;;;-0.42;86.14;94001.09;4996074;28;20232;-69
2021/01/25 09:46:30;;;;;;;1.03;1.03;;;;;;;-0.30;85.73;94005.81;5003358;28;20576;-69
2021/01/25 09:48:57;;;;;;;0.40;0.40;;;;;;;-0.14;85.36;94015.41;4986563;28;20475;-69
2021/01/25 09:51:24;;;;;;;1.00;0.73;;;;;;;0.03;84.68;94016.25;4998872;28;20971;-69
2021/01/25 09:53:51;;;;;;;6.97;1.77;;;;;;;-0.02;84.40;94013.31;4992812;28;20879;-69
2021/01/25 09:56:18;;;;;;;1.67;1.13;;;;;;;-0.03;84.58;94019.47;4983914;28;20497;-69
2021/01/25 09:58:45;;;;;;;0.80;0.80;;;;;;;0.02;84.19;94029.38;4986335;28;21003;-69
2021/01/25 10:01:12;;;;;;;1.07;0.97;;;;;;;0.11;84.24;94018.84;4996821;28;20501;-69
2021/01/25 10:03:39;;;;;;;1.33;0.70;;;;;;;0.24;83.54;94023.56;4988580;28;20665;-69
2021/01/25 10:06:07;;;;;;;0.80;0.80;;;;;;;0.27;84.22;94031.84;4986642;28;20316;-69
2021/01/25 10:08:36;;;;;;;1.17;0.70;;;;;;;0.14;84.04;94026.31;4987910;28;20236;-69
2021/01/25 10:11:03;;;;;;;1.10;0.87;;;;;;;0.28;84.25;94036.06;4981918;28;20221;-69
2021/01/25 10:13:31;;;;;;;0.70;0.63;;;;;;;0.41;83.71;94029.56;4995098;28;20743;-69
2021/01/25 10:15:58;;;;;;;1.63;0.73;;;;;;;0.35;84.22;94040.56;5002084;28;20298;-69
2021/01/25 10:18:25;;;;;;;0.73;0.73;;;;;;;0.34;84.55;94038.97;5001939;28;20227;-69
2021/01/25 10:20:51;;;;;;;1.43;1.33;;;;;;;0.38;84.33;94048.06;4998374;28;20278;-68
2021/01/25 10:23:19;;;;;;;0.90;0.90;;;;;;;0.25;84.83;94046.72;4998253;28;20668;-68
2021/01/25 10:25:47;;;;;;;0.70;0.70;;;;;;;0.16;85.28;94047.69;4995674;28;20314;-69
2021/01/25 10:28:15;;;;;;;0.80;0.80;;;;;;;0.02;85.30;94055.31;4997469;28;20584;-69
2021/01/25 10:30:42;;;;;;;0.60;0.60;;;;;;;-0.08;86.06;94055.44;4995364;28;20223;-69
2021/01/25 10:33:09;;;;;;;1.43;1.00;;;;;;;-0.08;86.53;94056.25;5004514;28;21655;-69
2021/01/25 10:35:36;;;;;;;1.27;1.17;;;;;;;-0.16;86.29;94058.00;4997478;28;20267;-69
2021/01/25 10:38:04;;;;;;;1.17;0.93;;;;;;;-0.06;86.31;94058.69;4992739;28;20649;-69
2021/01/25 10:40:31;;;;;;;0.90;0.50;;;;;;;-0.10;85.81;94062.53;5004674;28;20283;-69
2021/01/25 10:42:59;;;;;;;2.10;2.00;;;;;;;0.09;86.27;94072.66;4990627;28;20262;-69
2021/01/25 10:45:26;;;;;;;1.03;1.00;;;;;;;0.08;85.88;94065.84;5000221;28;20949;-69
2021/01/25 10:47:53;;;;;;;1.23;0.87;;;;;;;0.22;86.08;94072.19;5002288;28;20216;-69
2021/01/25 10:50:21;;;;;;;1.90;0.83;;;;;;;0.30;85.79;94074.00;5003164;28;20478;-69
2021/01/25 10:52:49;;;;;;;0.70;0.70;;;;;;;0.47;85.11;94073.03;5003710;28;20251;-69
2021/01/25 10:55:17;;;;;;;1.17;1.07;;;;;;;0.64;83.89;94082.47;5005034;28;20280;-68
2021/01/25 10:57:44;;;;;;;1.33;1.03;;;;;;;0.70;83.48;94076.59;4995786;28;20246;-69
2021/01/25 11:00:14;;;;;;;0.70;0.70;;;;;;;0.77;82.62;94081.97;4986061;28;20221;-69
2021/01/25 11:02:40;;;;;;;0.60;0.60;;;;;;;0.84;82.98;94083.75;5002290;28;20286;-69
2021/01/25 11:05:10;;;;;;;0.77;0.77;;;;;;;1.20;81.34;94083.38;4999199;28;20624;-69
2021/01/25 11:07:38;;;;;;;0.83;0.83;;;;;;;1.50;80.88;94083.63;4993485;28;20320;-69
2021/01/25 11:10:08;;;;;;;0.70;0.70;;;;;;;1.71;80.18;94086.47;4975396;28;20333;-69
2021/01/25 11:12:35;;;;;;;1.13;1.13;;;;;;;1.64;79.79;94088.09;4999243;28;20809;-69
2021/01/25 11:15:01;;;;;;;1.37;1.27;;;;;;;1.62;79.88;94087.47;4983752;28;20967;-69
2021/01/25 11:17:29;;;;;;;1.00;1.00;;;;;;;1.70;79.20;94082.25;4985695;28;20232;-69
2021/01/25 11:19:56;;;;;;;1.13;1.13;;;;;;;1.62;78.86;94092.66;4987592;28;20224;-69
2021/01/25 11:22:23;;;;;;;0.80;0.80;;;;;;;1.55;79.89;94086.50;4997154;28;20244;-69
2021/01/25 11:24:50;;;;;;;1.37;1.27;;;;;;;1.56;79.96;94088.16;4982133;28;20743;-69
2021/01/25 11:27:18;;;;;;;1.17;1.17;;;;;;;1.55;79.74;94095.13;5004270;28;20278;-70
2021/01/25 11:29:45;;;;;;;0.97;0.83;;;;;;;1.67;79.34;94098.19;4981042;28;20303;-70
2021/01/25 11:32:12;;;;;;;1.33;0.77;;;;;;;1.67;79.54;94090.38;4985240;28;20520;-70
2021/01/25 11:34:40;;;;;;;3.60;3.30;;;;;;;1.86;79.05;94096.97;4997918;28;20275;-70
2021/01/25 11:37:08;;;;;;;1.50;1.43;;;;;;;1.73;79.92;94099.28;4985574;28;20311;-70
2021/01/25 11:39:35;;;;;;;0.90;0.90;;;;;;;1.79;80.03;94094.22;5004722;28;20772;-70